sensor_id;sensor_type;location;lat;lon;timestamp;P1;durP1;ratioP1;P2;durP2;ratioP2
20318;SDS011;10317;47.254;11.314;2022-09-29T00:01:26;1.00;;;1.00;;
20318;SDS011;10317;47.254;11.314;2022-09-29T00:03:51;1.10;;;1.10;;
20318;SDS011;10317;47.254;11.314;2022-09-29T00:06:17;1.02;;;1.02;;
20318;SDS011;10317;47.254;11.314;2022-09-29T00:08:43;0.80;;;0.80;;
20318;SDS011;10317;47.254;11.314;2022-09-29T00:11:14;0.85;;;0.85;;
20318;SDS011;10317;47.254;11.314;2022-09-29T00:13:41;0.80;;;0.80;;
20318;SDS011;10317;47.254;11.314;2022-09-29T00:16:07;0.75;;;0.75;;
20318;SDS011;10317;47.254;11.314;2022-09-29T00:18:34;0.73;;;0.73;;
20318;SDS011;10317;47.254;11.314;2022-09-29T00:21:04;0.90;;;0.90;;
20318;SDS011;10317;47.254;11.314;2022-09-29T00:23:31;0.70;;;0.70;;
20318;SDS011;10317;47.254;11.314;2022-09-29T00:26:20;0.70;;;0.70;;
20318;SDS011;10317;47.254;11.314;2022-09-29T00:28:49;0.75;;;0.75;;
20318;SDS011;10317;47.254;11.314;2022-09-29T00:31:17;0.70;;;0.70;;
20318;SDS011;10317;47.254;11.314;2022-09-29T00:33:44;0.80;;;0.80;;
20318;SDS011;10317;47.254;11.314;2022-09-29T00:36:13;0.70;;;0.70;;
20318;SDS011;10317;47.254;11.314;2022-09-29T00:38:41;0.90;;;0.80;;
20318;SDS011;10317;47.254;11.314;2022-09-29T00:41:10;0.60;;;0.60;;
20318;SDS011;10317;47.254;11.314;2022-09-29T00:49:12;0.60;;;0.60;;
20318;SDS011;10317;47.254;11.314;2022-09-29T00:52:01;0.70;;;0.70;;
20318;SDS011;10317;47.254;11.314;2022-09-29T00:54:36;0.70;;;0.70;;
20318;SDS011;10317;47.254;11.314;2022-09-29T00:57:33;0.65;;;0.65;;
20318;SDS011;10317;47.254;11.314;2022-09-29T01:00:06;1.08;;;1.08;;
20318;SDS011;10317;47.254;11.314;2022-09-29T01:02:44;0.90;;;0.68;;
20318;SDS011;10317;47.254;11.314;2022-09-29T01:05:15;0.77;;;0.77;;
20318;SDS011;10317;47.254;11.314;2022-09-29T01:07:48;0.70;;;0.70;;
20318;SDS011;10317;47.254;11.314;2022-09-29T01:10:14;0.70;;;0.70;;
20318;SDS011;10317;47.254;11.314;2022-09-29T01:12:45;0.75;;;0.75;;
20318;SDS011;10317;47.254;11.314;2022-09-29T01:15:12;0.88;;;0.88;;
20318;SDS011;10317;47.254;11.314;2022-09-29T01:17:40;0.80;;;0.80;;
20318;SDS011;10317;47.254;11.314;2022-09-29T01:20:10;0.80;;;0.80;;
20318;SDS011;10317;47.254;11.314;2022-09-29T01:36:54;1.40;;;0.95;;
20318;SDS011;10317;47.254;11.314;2022-09-29T01:39:22;1.00;;;1.00;;
20318;SDS011;10317;47.254;11.314;2022-09-29T01:49:39;1.85;;;0.90;;
20318;SDS011;10317;47.254;11.314;2022-09-29T01:52:14;0.88;;;0.88;;
20318;SDS011;10317;47.254;11.314;2022-09-29T01:54:48;0.70;;;0.70;;
20318;SDS011;10317;47.254;11.314;2022-09-29T01:57:59;0.90;;;0.90;;
20318;SDS011;10317;47.254;11.314;2022-09-29T02:00:25;0.60;;;0.60;;
20318;SDS011;10317;47.254;11.314;2022-09-29T02:05:28;0.70;;;0.70;;
20318;SDS011;10317;47.254;11.314;2022-09-29T02:08:09;0.68;;;0.68;;
20318;SDS011;10317;47.254;11.314;2022-09-29T02:10:45;0.60;;;0.60;;
20318;SDS011;10317;47.254;11.314;2022-09-29T02:13:22;0.70;;;0.70;;
20318;SDS011;10317;47.254;11.314;2022-09-29T02:15:49;0.98;;;0.90;;
20318;SDS011;10317;47.254;11.314;2022-09-29T02:18:26;0.80;;;0.80;;
20318;SDS011;10317;47.254;11.314;2022-09-29T02:20:56;0.80;;;0.80;;
20318;SDS011;10317;47.254;11.314;2022-09-29T02:23:22;1.10;;;1.10;;
20318;SDS011;10317;47.254;11.314;2022-09-29T02:25:48;1.05;;;1.05;;
20318;SDS011;10317;47.254;11.314;2022-09-29T02:28:15;2.20;;;2.03;;
20318;SDS011;10317;47.254;11.314;2022-09-29T02:30:41;0.85;;;0.85;;
20318;SDS011;10317;47.254;11.314;2022-09-29T02:33:21;1.23;;;1.23;;
20318;SDS011;10317;47.254;11.314;2022-09-29T02:44:24;0.82;;;0.82;;
20318;SDS011;10317;47.254;11.314;2022-09-29T02:47:01;0.80;;;0.80;;
20318;SDS011;10317;47.254;11.314;2022-09-29T02:55:24;0.90;;;0.90;;
20318;SDS011;10317;47.254;11.314;2022-09-29T03:00:48;1.23;;;1.20;;
20318;SDS011;10317;47.254;11.314;2022-09-29T03:03:15;0.98;;;0.98;;
20318;SDS011;10317;47.254;11.314;2022-09-29T03:05:40;1.00;;;1.00;;
20318;SDS011;10317;47.254;11.314;2022-09-29T03:08:06;2.47;;;1.23;;
20318;SDS011;10317;47.254;11.314;2022-09-29T03:10:32;1.58;;;1.58;;
20318;SDS011;10317;47.254;11.314;2022-09-29T03:12:57;1.10;;;1.10;;
20318;SDS011;10317;47.254;11.314;2022-09-29T03:15:23;1.20;;;1.20;;
20318;SDS011;10317;47.254;11.314;2022-09-29T03:17:49;2.58;;;1.80;;
20318;SDS011;10317;47.254;11.314;2022-09-29T03:20:14;1.63;;;1.63;;
20318;SDS011;10317;47.254;11.314;2022-09-29T03:22:40;1.70;;;1.70;;
20318;SDS011;10317;47.254;11.314;2022-09-29T03:25:06;1.80;;;1.80;;
20318;SDS011;10317;47.254;11.314;2022-09-29T03:27:32;2.05;;;2.03;;
20318;SDS011;10317;47.254;11.314;2022-09-29T03:29:57;3.00;;;2.90;;
20318;SDS011;10317;47.254;11.314;2022-09-29T03:32:23;2.80;;;2.70;;
20318;SDS011;10317;47.254;11.314;2022-09-29T03:34:49;3.33;;;3.13;;
20318;SDS011;10317;47.254;11.314;2022-09-29T03:37:14;3.53;;;3.33;;
20318;SDS011;10317;47.254;11.314;2022-09-29T03:39:40;3.38;;;3.17;;
20318;SDS011;10317;47.254;11.314;2022-09-29T03:42:06;4.07;;;3.78;;
20318;SDS011;10317;47.254;11.314;2022-09-29T03:44:31;3.92;;;3.72;;
20318;SDS011;10317;47.254;11.314;2022-09-29T03:46:57;4.00;;;3.80;;
20318;SDS011;10317;47.254;11.314;2022-09-29T03:49:23;3.70;;;3.50;;
20318;SDS011;10317;47.254;11.314;2022-09-29T03:51:48;4.05;;;3.85;;
20318;SDS011;10317;47.254;11.314;2022-09-29T03:54:14;3.50;;;3.30;;
20318;SDS011;10317;47.254;11.314;2022-09-29T03:56:40;3.90;;;3.70;;
20318;SDS011;10317;47.254;11.314;2022-09-29T03:59:05;3.60;;;3.40;;
20318;SDS011;10317;47.254;11.314;2022-09-29T04:01:34;3.75;;;3.50;;
20318;SDS011;10317;47.254;11.314;2022-09-29T04:04:02;3.40;;;3.30;;
20318;SDS011;10317;47.254;11.314;2022-09-29T04:06:29;4.45;;;3.58;;
20318;SDS011;10317;47.254;11.314;2022-09-29T04:08:55;3.75;;;3.55;;
20318;SDS011;10317;47.254;11.314;2022-09-29T04:11:21;3.72;;;3.53;;
20318;SDS011;10317;47.254;11.314;2022-09-29T04:13:46;4.70;;;4.40;;
20318;SDS011;10317;47.254;11.314;2022-09-29T04:16:12;3.67;;;3.47;;
20318;SDS011;10317;47.254;11.314;2022-09-29T04:18:38;3.78;;;3.58;;
20318;SDS011;10317;47.254;11.314;2022-09-29T04:21:08;3.80;;;3.60;;
20318;SDS011;10317;47.254;11.314;2022-09-29T04:23:34;3.92;;;3.72;;
20318;SDS011;10317;47.254;11.314;2022-09-29T04:26:00;3.55;;;3.35;;
20318;SDS011;10317;47.254;11.314;2022-09-29T04:28:26;4.47;;;4.18;;
20318;SDS011;10317;47.254;11.314;2022-09-29T04:30:54;4.22;;;3.92;;
20318;SDS011;10317;47.254;11.314;2022-09-29T04:33:20;5.00;;;3.47;;
20318;SDS011;10317;47.254;11.314;2022-09-29T04:35:45;4.00;;;3.80;;
20318;SDS011;10317;47.254;11.314;2022-09-29T04:38:11;3.85;;;3.65;;
20318;SDS011;10317;47.254;11.314;2022-09-29T04:40:37;3.85;;;3.55;;
20318;SDS011;10317;47.254;11.314;2022-09-29T04:43:03;3.85;;;3.55;;
20318;SDS011;10317;47.254;11.314;2022-09-29T04:45:29;4.20;;;3.90;;
20318;SDS011;10317;47.254;11.314;2022-09-29T04:47:55;4.00;;;3.70;;
20318;SDS011;10317;47.254;11.314;2022-09-29T04:50:21;4.68;;;4.38;;
20318;SDS011;10317;47.254;11.314;2022-09-29T04:52:47;3.75;;;3.55;;
20318;SDS011;10317;47.254;11.314;2022-09-29T04:55:12;3.90;;;3.70;;
20318;SDS011;10317;47.254;11.314;2022-09-29T04:57:39;3.75;;;3.53;;
20318;SDS011;10317;47.254;11.314;2022-09-29T05:00:06;3.20;;;3.05;;
20318;SDS011;10317;47.254;11.314;2022-09-29T05:02:33;3.28;;;3.08;;
20318;SDS011;10317;47.254;11.314;2022-09-29T05:05:00;4.05;;;3.75;;
20318;SDS011;10317;47.254;11.314;2022-09-29T05:07:25;3.50;;;3.30;;
20318;SDS011;10317;47.254;11.314;2022-09-29T05:09:51;3.80;;;3.60;;
20318;SDS011;10317;47.254;11.314;2022-09-29T05:12:17;3.97;;;3.78;;
20318;SDS011;10317;47.254;11.314;2022-09-29T05:14:43;3.60;;;3.40;;
20318;SDS011;10317;47.254;11.314;2022-09-29T05:17:08;3.53;;;3.33;;
20318;SDS011;10317;47.254;11.314;2022-09-29T05:19:34;3.80;;;3.50;;
20318;SDS011;10317;47.254;11.314;2022-09-29T05:22:00;3.85;;;3.65;;
20318;SDS011;10317;47.254;11.314;2022-09-29T05:24:26;4.38;;;4.18;;
20318;SDS011;10317;47.254;11.314;2022-09-29T05:26:52;4.65;;;4.25;;
20318;SDS011;10317;47.254;11.314;2022-09-29T05:29:19;5.28;;;4.88;;
20318;SDS011;10317;47.254;11.314;2022-09-29T05:31:44;4.32;;;3.92;;
20318;SDS011;10317;47.254;11.314;2022-09-29T05:34:10;4.10;;;3.75;;
20318;SDS011;10317;47.254;11.314;2022-09-29T05:36:36;3.65;;;3.45;;
20318;SDS011;10317;47.254;11.314;2022-09-29T05:39:02;3.97;;;3.67;;
20318;SDS011;10317;47.254;11.314;2022-09-29T05:41:28;4.15;;;3.80;;
20318;SDS011;10317;47.254;11.314;2022-09-29T05:43:54;3.92;;;3.63;;
20318;SDS011;10317;47.254;11.314;2022-09-29T05:46:21;5.20;;;4.75;;
20318;SDS011;10317;47.254;11.314;2022-09-29T05:48:47;5.50;;;5.00;;
20318;SDS011;10317;47.254;11.314;2022-09-29T05:51:16;5.00;;;4.60;;
20318;SDS011;10317;47.254;11.314;2022-09-29T05:53:44;5.40;;;5.00;;
20318;SDS011;10317;47.254;11.314;2022-09-29T05:56:12;5.43;;;4.93;;
20318;SDS011;10317;47.254;11.314;2022-09-29T05:58:43;4.65;;;4.30;;
20318;SDS011;10317;47.254;11.314;2022-09-29T06:01:10;5.45;;;5.05;;
20318;SDS011;10317;47.254;11.314;2022-09-29T06:03:38;5.38;;;4.88;;
20318;SDS011;10317;47.254;11.314;2022-09-29T06:06:08;4.53;;;4.22;;
20318;SDS011;10317;47.254;11.314;2022-09-29T06:08:41;5.85;;;5.35;;
20318;SDS011;10317;47.254;11.314;2022-09-29T06:11:11;5.32;;;4.85;;
20318;SDS011;10317;47.254;11.314;2022-09-29T06:13:43;4.95;;;4.57;;
20318;SDS011;10317;47.254;11.314;2022-09-29T06:16:13;4.70;;;4.40;;
20318;SDS011;10317;47.254;11.314;2022-09-29T06:18:40;4.35;;;4.05;;
20318;SDS011;10317;47.254;11.314;2022-09-29T06:21:11;4.70;;;4.30;;
20318;SDS011;10317;47.254;11.314;2022-09-29T06:23:38;5.20;;;4.75;;
20318;SDS011;10317;47.254;11.314;2022-09-29T06:26:08;6.55;;;5.95;;
20318;SDS011;10317;47.254;11.314;2022-09-29T06:28:36;4.70;;;4.40;;
20318;SDS011;10317;47.254;11.314;2022-09-29T06:31:03;5.38;;;4.88;;
20318;SDS011;10317;47.254;11.314;2022-09-29T06:33:35;4.32;;;3.92;;
20318;SDS011;10317;47.254;11.314;2022-09-29T06:36:11;6.65;;;4.70;;
20318;SDS011;10317;47.254;11.314;2022-09-29T06:38:58;4.68;;;4.28;;
20318;SDS011;10317;47.254;11.314;2022-09-29T06:41:25;4.45;;;4.15;;
20318;SDS011;10317;47.254;11.314;2022-09-29T06:43:52;5.22;;;4.82;;
20318;SDS011;10317;47.254;11.314;2022-09-29T06:46:18;4.80;;;4.40;;
20318;SDS011;10317;47.254;11.314;2022-09-29T06:48:44;4.63;;;4.22;;
20318;SDS011;10317;47.254;11.314;2022-09-29T06:51:10;4.95;;;4.55;;
20318;SDS011;10317;47.254;11.314;2022-09-29T06:53:35;5.65;;;5.15;;
20318;SDS011;10317;47.254;11.314;2022-09-29T06:56:01;5.45;;;5.00;;
20318;SDS011;10317;47.254;11.314;2022-09-29T06:58:27;5.00;;;4.60;;
20318;SDS011;10317;47.254;11.314;2022-09-29T07:00:54;5.60;;;5.10;;
20318;SDS011;10317;47.254;11.314;2022-09-29T07:03:20;6.15;;;5.25;;
20318;SDS011;10317;47.254;11.314;2022-09-29T07:05:46;6.32;;;5.68;;
20318;SDS011;10317;47.254;11.314;2022-09-29T07:08:12;6.45;;;5.90;;
20318;SDS011;10317;47.254;11.314;2022-09-29T07:10:37;6.40;;;5.90;;
20318;SDS011;10317;47.254;11.314;2022-09-29T07:13:03;6.32;;;5.80;;
20318;SDS011;10317;47.254;11.314;2022-09-29T07:15:30;7.30;;;5.95;;
20318;SDS011;10317;47.254;11.314;2022-09-29T07:17:56;6.15;;;5.55;;
20318;SDS011;10317;47.254;11.314;2022-09-29T07:20:23;6.15;;;5.55;;
20318;SDS011;10317;47.254;11.314;2022-09-29T07:22:53;6.38;;;5.85;;
20318;SDS011;10317;47.254;11.314;2022-09-29T07:25:19;6.95;;;6.35;;
20318;SDS011;10317;47.254;11.314;2022-09-29T07:27:45;6.30;;;5.80;;
20318;SDS011;10317;47.254;11.314;2022-09-29T07:30:11;6.93;;;6.32;;
20318;SDS011;10317;47.254;11.314;2022-09-29T07:32:37;6.80;;;6.15;;
20318;SDS011;10317;47.254;11.314;2022-09-29T07:35:03;6.68;;;6.07;;
20318;SDS011;10317;47.254;11.314;2022-09-29T07:37:30;8.45;;;5.97;;
20318;SDS011;10317;47.254;11.314;2022-09-29T07:39:56;7.53;;;6.70;;
20318;SDS011;10317;47.254;11.314;2022-09-29T07:42:22;8.52;;;7.63;;
20318;SDS011;10317;47.254;11.314;2022-09-29T07:44:48;8.18;;;6.82;;
20318;SDS011;10317;47.254;11.314;2022-09-29T07:47:14;6.53;;;5.93;;
20318;SDS011;10317;47.254;11.314;2022-09-29T07:49:40;8.15;;;6.65;;
20318;SDS011;10317;47.254;11.314;2022-09-29T07:52:07;7.43;;;6.30;;
20318;SDS011;10317;47.254;11.314;2022-09-29T07:54:33;7.10;;;6.40;;
20318;SDS011;10317;47.254;11.314;2022-09-29T07:56:58;7.68;;;6.75;;
20318;SDS011;10317;47.254;11.314;2022-09-29T07:59:26;7.53;;;5.80;;
20318;SDS011;10317;47.254;11.314;2022-09-29T08:01:52;6.15;;;5.50;;
20318;SDS011;10317;47.254;11.314;2022-09-29T08:04:18;7.00;;;6.30;;
20318;SDS011;10317;47.254;11.314;2022-09-29T08:06:44;8.73;;;7.68;;
20318;SDS011;10317;47.254;11.314;2022-09-29T08:09:10;7.60;;;6.53;;
20318;SDS011;10317;47.254;11.314;2022-09-29T08:11:37;7.95;;;5.93;;
20318;SDS011;10317;47.254;11.314;2022-09-29T08:14:04;6.20;;;5.63;;
20318;SDS011;10317;47.254;11.314;2022-09-29T08:16:31;6.55;;;5.72;;
20318;SDS011;10317;47.254;11.314;2022-09-29T08:18:57;6.50;;;5.88;;
20318;SDS011;10317;47.254;11.314;2022-09-29T08:21:24;6.85;;;5.75;;
20318;SDS011;10317;47.254;11.314;2022-09-29T08:23:51;6.00;;;5.40;;
20318;SDS011;10317;47.254;11.314;2022-09-29T08:26:17;6.15;;;5.55;;
20318;SDS011;10317;47.254;11.314;2022-09-29T08:28:44;5.72;;;5.10;;
20318;SDS011;10317;47.254;11.314;2022-09-29T08:31:11;4.70;;;4.30;;
20318;SDS011;10317;47.254;11.314;2022-09-29T08:33:39;6.60;;;5.07;;
20318;SDS011;10317;47.254;11.314;2022-09-29T08:36:05;4.88;;;4.47;;
20318;SDS011;10317;47.254;11.314;2022-09-29T08:38:44;5.88;;;4.85;;
20318;SDS011;10317;47.254;11.314;2022-09-29T08:43:49;5.15;;;4.43;;
20318;SDS011;10317;47.254;11.314;2022-09-29T08:48:53;6.00;;;4.88;;
20318;SDS011;10317;47.254;11.314;2022-09-29T08:53:57;5.47;;;4.43;;
20318;SDS011;10317;47.254;11.314;2022-09-29T08:56:28;4.38;;;4.03;;
20318;SDS011;10317;47.254;11.314;2022-09-29T08:58:54;3.65;;;3.35;;
20318;SDS011;10317;47.254;11.314;2022-09-29T09:04:14;3.80;;;3.60;;
20318;SDS011;10317;47.254;11.314;2022-09-29T09:09:37;4.07;;;3.78;;
20318;SDS011;10317;47.254;11.314;2022-09-29T09:12:20;3.65;;;3.45;;
20318;SDS011;10317;47.254;11.314;2022-09-29T09:20:39;4.35;;;3.95;;
20318;SDS011;10317;47.254;11.314;2022-09-29T09:25:38;4.40;;;4.03;;
20318;SDS011;10317;47.254;11.314;2022-09-29T09:28:28;3.65;;;3.42;;
20318;SDS011;10317;47.254;11.314;2022-09-29T09:30:59;3.90;;;3.60;;
20318;SDS011;10317;47.254;11.314;2022-09-29T09:36:13;4.43;;;3.88;;
20318;SDS011;10317;47.254;11.314;2022-09-29T09:38:48;4.28;;;3.97;;
20318;SDS011;10317;47.254;11.314;2022-09-29T09:41:46;4.80;;;3.85;;
20318;SDS011;10317;47.254;11.314;2022-09-29T09:44:29;3.42;;;3.13;;
20318;SDS011;10317;47.254;11.314;2022-09-29T09:46:59;3.80;;;3.50;;
20318;SDS011;10317;47.254;11.314;2022-09-29T09:49:48;3.65;;;3.33;;
20318;SDS011;10317;47.254;11.314;2022-09-29T09:55:00;4.10;;;3.80;;
20318;SDS011;10317;47.254;11.314;2022-09-29T10:03:03;4.07;;;3.88;;
20318;SDS011;10317;47.254;11.314;2022-09-29T10:05:32;4.38;;;3.92;;
20318;SDS011;10317;47.254;11.314;2022-09-29T10:08:03;4.20;;;3.83;;
20318;SDS011;10317;47.254;11.314;2022-09-29T10:10:36;5.88;;;3.90;;
20318;SDS011;10317;47.254;11.314;2022-09-29T10:13:07;3.85;;;3.55;;
20318;SDS011;10317;47.254;11.314;2022-09-29T10:15:37;4.90;;;4.30;;
20318;SDS011;10317;47.254;11.314;2022-09-29T10:18:06;4.28;;;3.97;;
20318;SDS011;10317;47.254;11.314;2022-09-29T10:20:38;5.28;;;3.92;;
20318;SDS011;10317;47.254;11.314;2022-09-29T10:23:25;4.13;;;3.83;;
20318;SDS011;10317;47.254;11.314;2022-09-29T10:26:11;3.78;;;3.50;;
20318;SDS011;10317;47.254;11.314;2022-09-29T10:28:43;3.63;;;3.33;;
20318;SDS011;10317;47.254;11.314;2022-09-29T10:31:19;4.03;;;3.58;;
20318;SDS011;10317;47.254;11.314;2022-09-29T10:34:36;4.10;;;3.80;;
20318;SDS011;10317;47.254;11.314;2022-09-29T10:36:50;3.75;;;3.55;;
20318;SDS011;10317;47.254;11.314;2022-09-29T10:41:56;3.88;;;3.35;;
20318;SDS011;10317;47.254;11.314;2022-09-29T10:44:22;3.60;;;3.00;;
20318;SDS011;10317;47.254;11.314;2022-09-29T10:46:49;4.28;;;3.38;;
20318;SDS011;10317;47.254;11.314;2022-09-29T10:49:19;3.50;;;3.20;;
20318;SDS011;10317;47.254;11.314;2022-09-29T10:52:03;3.25;;;3.05;;
20318;SDS011;10317;47.254;11.314;2022-09-29T10:54:31;3.78;;;3.47;;
20318;SDS011;10317;47.254;11.314;2022-09-29T10:57:10;3.53;;;3.20;;
20318;SDS011;10317;47.254;11.314;2022-09-29T10:59:44;3.83;;;3.53;;
20318;SDS011;10317;47.254;11.314;2022-09-29T11:02:47;3.75;;;3.42;;
20318;SDS011;10317;47.254;11.314;2022-09-29T11:05:15;3.47;;;3.28;;
20318;SDS011;10317;47.254;11.314;2022-09-29T11:07:43;6.35;;;4.50;;
20318;SDS011;10317;47.254;11.314;2022-09-29T11:10:30;3.50;;;3.25;;
20318;SDS011;10317;47.254;11.314;2022-09-29T11:12:56;5.22;;;4.00;;
20318;SDS011;10317;47.254;11.314;2022-09-29T11:15:25;3.90;;;3.60;;
20318;SDS011;10317;47.254;11.314;2022-09-29T11:17:53;3.08;;;2.88;;
20318;SDS011;10317;47.254;11.314;2022-09-29T11:20:20;4.45;;;3.38;;
20318;SDS011;10317;47.254;11.314;2022-09-29T11:28:15;3.28;;;2.97;;
20318;SDS011;10317;47.254;11.314;2022-09-29T11:36:48;3.25;;;3.05;;
20318;SDS011;10317;47.254;11.314;2022-09-29T11:39:29;3.20;;;2.90;;
20318;SDS011;10317;47.254;11.314;2022-09-29T11:42:19;2.60;;;2.50;;
20318;SDS011;10317;47.254;11.314;2022-09-29T11:44:54;3.03;;;2.83;;
20318;SDS011;10317;47.254;11.314;2022-09-29T11:50:56;4.00;;;3.30;;
20318;SDS011;10317;47.254;11.314;2022-09-29T11:53:36;4.00;;;3.58;;
20318;SDS011;10317;47.254;11.314;2022-09-29T11:56:30;3.28;;;3.08;;
20318;SDS011;10317;47.254;11.314;2022-09-29T11:59:04;3.50;;;3.30;;
20318;SDS011;10317;47.254;11.314;2022-09-29T12:01:45;3.90;;;3.60;;
20318;SDS011;10317;47.254;11.314;2022-09-29T12:04:37;3.42;;;3.22;;
20318;SDS011;10317;47.254;11.314;2022-09-29T12:09:55;2.88;;;2.67;;
20318;SDS011;10317;47.254;11.314;2022-09-29T12:12:38;3.30;;;2.88;;
20318;SDS011;10317;47.254;11.314;2022-09-29T12:17:59;3.60;;;3.30;;
20318;SDS011;10317;47.254;11.314;2022-09-29T12:20:36;2.92;;;2.63;;
20318;SDS011;10317;47.254;11.314;2022-09-29T12:23:08;3.33;;;3.00;;
20318;SDS011;10317;47.254;11.314;2022-09-29T12:25:38;3.10;;;2.88;;
20318;SDS011;10317;47.254;11.314;2022-09-29T12:28:11;3.13;;;2.92;;
20318;SDS011;10317;47.254;11.314;2022-09-29T12:30:49;2.85;;;2.65;;
20318;SDS011;10317;47.254;11.314;2022-09-29T12:33:24;4.47;;;3.00;;
20318;SDS011;10317;47.254;11.314;2022-09-29T12:36:39;2.40;;;2.30;;
20318;SDS011;10317;47.254;11.314;2022-09-29T12:41:54;3.42;;;3.05;;
20318;SDS011;10317;47.254;11.314;2022-09-29T12:44:37;4.22;;;2.40;;
20318;SDS011;10317;47.254;11.314;2022-09-29T12:47:08;2.65;;;2.45;;
20318;SDS011;10317;47.254;11.314;2022-09-29T12:49:57;2.70;;;2.45;;
20318;SDS011;10317;47.254;11.314;2022-09-29T12:52:43;2.22;;;2.13;;
20318;SDS011;10317;47.254;11.314;2022-09-29T12:58:21;2.75;;;2.55;;
20318;SDS011;10317;47.254;11.314;2022-09-29T13:01:25;2.30;;;2.17;;
20318;SDS011;10317;47.254;11.314;2022-09-29T13:09:28;1.98;;;1.88;;
20318;SDS011;10317;47.254;11.314;2022-09-29T13:15:16;2.28;;;2.00;;
20318;SDS011;10317;47.254;11.314;2022-09-29T13:26:09;1.80;;;1.80;;
20318;SDS011;10317;47.254;11.314;2022-09-29T13:31:22;2.03;;;1.92;;
20318;SDS011;10317;47.254;11.314;2022-09-29T13:33:52;2.55;;;1.70;;
20318;SDS011;10317;47.254;11.314;2022-09-29T13:36:30;2.10;;;1.90;;
20318;SDS011;10317;47.254;11.314;2022-09-29T13:39:00;4.03;;;1.92;;
20318;SDS011;10317;47.254;11.314;2022-09-29T13:41:47;1.80;;;1.60;;
20318;SDS011;10317;47.254;11.314;2022-09-29T13:44:19;5.28;;;2.40;;
20318;SDS011;10317;47.254;11.314;2022-09-29T13:46:47;2.90;;;2.22;;
20318;SDS011;10317;47.254;11.314;2022-09-29T13:49:14;2.25;;;1.90;;
20318;SDS011;10317;47.254;11.314;2022-09-29T13:51:54;1.85;;;1.85;;
20318;SDS011;10317;47.254;11.314;2022-09-29T13:59:59;1.92;;;1.83;;
20318;SDS011;10317;47.254;11.314;2022-09-29T14:02:36;1.90;;;1.80;;
20318;SDS011;10317;47.254;11.314;2022-09-29T14:05:28;2.90;;;2.40;;
20318;SDS011;10317;47.254;11.314;2022-09-29T14:10:20;3.55;;;2.47;;
20318;SDS011;10317;47.254;11.314;2022-09-29T14:15:59;2.83;;;2.63;;
20318;SDS011;10317;47.254;11.314;2022-09-29T14:18:46;2.90;;;2.70;;
20318;SDS011;10317;47.254;11.314;2022-09-29T14:29:40;2.65;;;2.45;;
20318;SDS011;10317;47.254;11.314;2022-09-29T14:32:18;2.53;;;2.35;;
20318;SDS011;10317;47.254;11.314;2022-09-29T14:34:47;2.40;;;2.30;;
20318;SDS011;10317;47.254;11.314;2022-09-29T14:37:18;2.25;;;2.15;;
20318;SDS011;10317;47.254;11.314;2022-09-29T14:39:46;2.67;;;2.40;;
20318;SDS011;10317;47.254;11.314;2022-09-29T14:42:39;2.47;;;1.88;;
20318;SDS011;10317;47.254;11.314;2022-09-29T14:45:05;2.00;;;1.90;;
20318;SDS011;10317;47.254;11.314;2022-09-29T14:50:43;2.03;;;1.92;;
20318;SDS011;10317;47.254;11.314;2022-09-29T15:00:03;2.75;;;2.47;;
20318;SDS011;10317;47.254;11.314;2022-09-29T15:02:27;2.08;;;1.98;;
20318;SDS011;10317;47.254;11.314;2022-09-29T15:04:54;2.40;;;2.20;;
20318;SDS011;10317;47.254;11.314;2022-09-29T15:07:22;2.60;;;2.40;;
20318;SDS011;10317;47.254;11.314;2022-09-29T15:09:53;2.20;;;2.10;;
20318;SDS011;10317;47.254;11.314;2022-09-29T15:12:25;2.60;;;2.47;;
20318;SDS011;10317;47.254;11.314;2022-09-29T15:14:55;2.42;;;2.25;;
20318;SDS011;10317;47.254;11.314;2022-09-29T15:20:32;2.40;;;2.30;;
20318;SDS011;10317;47.254;11.314;2022-09-29T15:26:18;3.63;;;2.33;;
20318;SDS011;10317;47.254;11.314;2022-09-29T15:28:44;2.92;;;2.67;;
20318;SDS011;10317;47.254;11.314;2022-09-29T15:31:16;2.42;;;2.33;;
20318;SDS011;10317;47.254;11.314;2022-09-29T15:33:45;3.05;;;2.80;;
20318;SDS011;10317;47.254;11.314;2022-09-29T15:41:29;2.88;;;2.67;;
20318;SDS011;10317;47.254;11.314;2022-09-29T15:44:01;2.70;;;2.60;;
20318;SDS011;10317;47.254;11.314;2022-09-29T15:46:41;3.67;;;3.38;;
20318;SDS011;10317;47.254;11.314;2022-09-29T15:51:55;3.80;;;3.10;;
20318;SDS011;10317;47.254;11.314;2022-09-29T15:54:33;4.80;;;3.15;;
20318;SDS011;10317;47.254;11.314;2022-09-29T15:57:02;4.05;;;3.53;;
20318;SDS011;10317;47.254;11.314;2022-09-29T15:59:51;3.30;;;3.10;;
20318;SDS011;10317;47.254;11.314;2022-09-29T16:02:40;3.17;;;2.97;;
20318;SDS011;10317;47.254;11.314;2022-09-29T16:05:11;3.90;;;3.53;;
20318;SDS011;10317;47.254;11.314;2022-09-29T16:07:48;3.17;;;2.88;;
20318;SDS011;10317;47.254;11.314;2022-09-29T16:10:22;3.22;;;3.03;;
20318;SDS011;10317;47.254;11.314;2022-09-29T16:12:55;3.47;;;3.17;;
20318;SDS011;10317;47.254;11.314;2022-09-29T16:15:44;3.10;;;2.90;;
20318;SDS011;10317;47.254;11.314;2022-09-29T16:18:15;3.40;;;3.20;;
20318;SDS011;10317;47.254;11.314;2022-09-29T16:20:44;3.60;;;3.38;;
20318;SDS011;10317;47.254;11.314;2022-09-29T16:28:32;3.53;;;3.22;;
20318;SDS011;10317;47.254;11.314;2022-09-29T16:31:00;3.90;;;3.55;;
20318;SDS011;10317;47.254;11.314;2022-09-29T16:33:27;5.50;;;3.80;;
20318;SDS011;10317;47.254;11.314;2022-09-29T16:38:36;4.45;;;3.75;;
20318;SDS011;10317;47.254;11.314;2022-09-29T16:41:24;6.05;;;3.80;;
20318;SDS011;10317;47.254;11.314;2022-09-29T16:44:40;5.35;;;4.05;;
20318;SDS011;10317;47.254;11.314;2022-09-29T16:47:14;3.85;;;3.55;;
20318;SDS011;10317;47.254;11.314;2022-09-29T16:52:24;5.55;;;4.20;;
20318;SDS011;10317;47.254;11.314;2022-09-29T16:55:10;6.65;;;3.90;;
20318;SDS011;10317;47.254;11.314;2022-09-29T16:57:55;4.18;;;3.78;;
20318;SDS011;10317;47.254;11.314;2022-09-29T17:00:34;6.15;;;4.38;;
20318;SDS011;10317;47.254;11.314;2022-09-29T17:03:00;4.30;;;3.75;;
20318;SDS011;10317;47.254;11.314;2022-09-29T17:05:29;5.18;;;4.15;;
20318;SDS011;10317;47.254;11.314;2022-09-29T17:07:59;6.13;;;4.65;;
20318;SDS011;10317;47.254;11.314;2022-09-29T17:10:27;7.32;;;4.70;;
20318;SDS011;10317;47.254;11.314;2022-09-29T17:12:53;5.30;;;4.72;;
20318;SDS011;10317;47.254;11.314;2022-09-29T17:15:19;5.70;;;4.43;;
20318;SDS011;10317;47.254;11.314;2022-09-29T17:17:47;6.13;;;5.18;;
20318;SDS011;10317;47.254;11.314;2022-09-29T17:20:15;7.28;;;4.78;;
20318;SDS011;10317;47.254;11.314;2022-09-29T17:22:45;7.40;;;5.35;;
20318;SDS011;10317;47.254;11.314;2022-09-29T17:25:11;6.95;;;5.65;;
20318;SDS011;10317;47.254;11.314;2022-09-29T17:27:38;7.82;;;5.65;;
20318;SDS011;10317;47.254;11.314;2022-09-29T17:30:23;5.72;;;4.80;;
20318;SDS011;10317;47.254;11.314;2022-09-29T17:32:52;7.38;;;5.72;;
20318;SDS011;10317;47.254;11.314;2022-09-29T17:35:22;6.30;;;5.05;;
20318;SDS011;10317;47.254;11.314;2022-09-29T17:37:49;7.40;;;5.32;;
20318;SDS011;10317;47.254;11.314;2022-09-29T17:40:26;5.45;;;4.95;;
20318;SDS011;10317;47.254;11.314;2022-09-29T17:43:13;6.25;;;5.30;;
20318;SDS011;10317;47.254;11.314;2022-09-29T17:45:39;6.63;;;6.03;;
20318;SDS011;10317;47.254;11.314;2022-09-29T17:48:06;5.43;;;4.93;;
20318;SDS011;10317;47.254;11.314;2022-09-29T17:50:34;5.50;;;4.85;;
20318;SDS011;10317;47.254;11.314;2022-09-29T17:53:09;5.78;;;5.25;;
20318;SDS011;10317;47.254;11.314;2022-09-29T17:55:41;5.03;;;4.53;;
20318;SDS011;10317;47.254;11.314;2022-09-29T17:58:12;5.28;;;4.78;;
20318;SDS011;10317;47.254;11.314;2022-09-29T18:00:40;5.47;;;4.30;;